sensor_id;sensor_type;location;lat;lon;timestamp;P1;durP1;ratioP1;P2;durP2;ratioP2
35372;SDS011;21476;51.652;7.852;2022-10-17T00:01:54;7.65;;;6.25;;
35372;SDS011;21476;51.652;7.852;2022-10-17T00:04:20;10.48;;;6.25;;
35372;SDS011;21476;51.652;7.852;2022-10-17T00:06:46;9.18;;;6.63;;
35372;SDS011;21476;51.652;7.852;2022-10-17T00:09:12;7.88;;;6.63;;
35372;SDS011;21476;51.652;7.852;2022-10-17T00:11:37;8.70;;;6.10;;
35372;SDS011;21476;51.652;7.852;2022-10-17T00:14:04;10.05;;;6.43;;
35372;SDS011;21476;51.652;7.852;2022-10-17T00:16:30;10.15;;;6.05;;
35372;SDS011;21476;51.652;7.852;2022-10-17T00:19:00;9.80;;;6.45;;
35372;SDS011;21476;51.652;7.852;2022-10-17T00:21:27;9.93;;;7.35;;
35372;SDS011;21476;51.652;7.852;2022-10-17T00:23:52;9.23;;;7.00;;
35372;SDS011;21476;51.652;7.852;2022-10-17T00:26:18;15.38;;;8.05;;
35372;SDS011;21476;51.652;7.852;2022-10-17T00:28:46;12.93;;;8.35;;
35372;SDS011;21476;51.652;7.852;2022-10-17T00:31:16;11.32;;;8.75;;
35372;SDS011;21476;51.652;7.852;2022-10-17T00:33:43;10.88;;;8.30;;
35372;SDS011;21476;51.652;7.852;2022-10-17T00:36:19;9.75;;;7.07;;
35372;SDS011;21476;51.652;7.852;2022-10-17T00:38:48;11.38;;;6.35;;
35372;SDS011;21476;51.652;7.852;2022-10-17T00:41:17;9.30;;;5.93;;
35372;SDS011;21476;51.652;7.852;2022-10-17T00:46:54;9.18;;;6.97;;
35372;SDS011;21476;51.652;7.852;2022-10-17T00:49:21;8.70;;;6.07;;
35372;SDS011;21476;51.652;7.852;2022-10-17T00:51:49;8.90;;;7.35;;
35372;SDS011;21476;51.652;7.852;2022-10-17T00:54:29;9.55;;;7.13;;
35372;SDS011;21476;51.652;7.852;2022-10-17T00:57:01;12.20;;;7.35;;
35372;SDS011;21476;51.652;7.852;2022-10-17T00:59:27;9.55;;;7.05;;
35372;SDS011;21476;51.652;7.852;2022-10-17T01:01:59;10.57;;;6.30;;
35372;SDS011;21476;51.652;7.852;2022-10-17T01:04:27;9.77;;;6.80;;
35372;SDS011;21476;51.652;7.852;2022-10-17T01:06:53;8.38;;;6.90;;
35372;SDS011;21476;51.652;7.852;2022-10-17T01:09:18;9.73;;;7.25;;
35372;SDS011;21476;51.652;7.852;2022-10-17T01:11:49;10.50;;;6.57;;
35372;SDS011;21476;51.652;7.852;2022-10-17T01:14:22;9.27;;;7.22;;
35372;SDS011;21476;51.652;7.852;2022-10-17T01:16:53;11.50;;;6.32;;
35372;SDS011;21476;51.652;7.852;2022-10-17T01:22:08;15.27;;;7.90;;
35372;SDS011;21476;51.652;7.852;2022-10-17T01:32:14;9.40;;;7.97;;
35372;SDS011;21476;51.652;7.852;2022-10-17T01:35:01;8.98;;;7.50;;
35372;SDS011;21476;51.652;7.852;2022-10-17T01:40:24;10.48;;;7.55;;
35372;SDS011;21476;51.652;7.852;2022-10-17T01:45:42;14.95;;;7.95;;
35372;SDS011;21476;51.652;7.852;2022-10-17T01:48:14;9.90;;;7.32;;
35372;SDS011;21476;51.652;7.852;2022-10-17T01:50:43;8.60;;;7.10;;
35372;SDS011;21476;51.652;7.852;2022-10-17T01:53:18;11.70;;;7.63;;
35372;SDS011;21476;51.652;7.852;2022-10-17T01:55:52;15.00;;;7.18;;
35372;SDS011;21476;51.652;7.852;2022-10-17T01:58:23;11.13;;;8.05;;
35372;SDS011;21476;51.652;7.852;2022-10-17T02:00:53;8.07;;;6.82;;
35372;SDS011;21476;51.652;7.852;2022-10-17T02:03:23;11.90;;;8.63;;
35372;SDS011;21476;51.652;7.852;2022-10-17T02:05:51;11.00;;;8.27;;
35372;SDS011;21476;51.652;7.852;2022-10-17T02:08:50;10.35;;;7.90;;
35372;SDS011;21476;51.652;7.852;2022-10-17T02:11:20;13.48;;;7.95;;
35372;SDS011;21476;51.652;7.852;2022-10-17T02:27:14;8.35;;;6.95;;
35372;SDS011;21476;51.652;7.852;2022-10-17T02:30:16;10.18;;;7.68;;
35372;SDS011;21476;51.652;7.852;2022-10-17T02:35:19;12.90;;;8.40;;
35372;SDS011;21476;51.652;7.852;2022-10-17T02:37:46;9.80;;;7.30;;
35372;SDS011;21476;51.652;7.852;2022-10-17T02:40:13;10.45;;;6.93;;
35372;SDS011;21476;51.652;7.852;2022-10-17T02:42:42;12.38;;;6.50;;
35372;SDS011;21476;51.652;7.852;2022-10-17T02:45:10;10.68;;;7.43;;
35372;SDS011;21476;51.652;7.852;2022-10-17T02:50:19;9.43;;;5.32;;
35372;SDS011;21476;51.652;7.852;2022-10-17T02:52:56;10.00;;;5.82;;
35372;SDS011;21476;51.652;7.852;2022-10-17T02:55:34;7.35;;;4.93;;
35372;SDS011;21476;51.652;7.852;2022-10-17T02:58:06;6.80;;;5.38;;
35372;SDS011;21476;51.652;7.852;2022-10-17T03:00:40;7.65;;;5.88;;
35372;SDS011;21476;51.652;7.852;2022-10-17T03:03:20;14.88;;;6.90;;
35372;SDS011;21476;51.652;7.852;2022-10-17T03:05:51;8.30;;;6.47;;
35372;SDS011;21476;51.652;7.852;2022-10-17T03:08:17;7.32;;;5.78;;
35372;SDS011;21476;51.652;7.852;2022-10-17T03:10:43;7.85;;;6.10;;
35372;SDS011;21476;51.652;7.852;2022-10-17T03:13:09;7.18;;;5.78;;
35372;SDS011;21476;51.652;7.852;2022-10-17T03:15:35;6.13;;;5.07;;
35372;SDS011;21476;51.652;7.852;2022-10-17T03:18:00;8.80;;;5.32;;
35372;SDS011;21476;51.652;7.852;2022-10-17T03:20:26;191.15;;;17.92;;
35372;SDS011;21476;51.652;7.852;2022-10-17T03:22:52;5.03;;;4.00;;
35372;SDS011;21476;51.652;7.852;2022-10-17T03:25:17;5.78;;;3.78;;
35372;SDS011;21476;51.652;7.852;2022-10-17T03:27:43;5.03;;;4.13;;
35372;SDS011;21476;51.652;7.852;2022-10-17T03:30:08;8.40;;;5.38;;
35372;SDS011;21476;51.652;7.852;2022-10-17T03:32:34;9.07;;;6.05;;
35372;SDS011;21476;51.652;7.852;2022-10-17T03:35:00;14.95;;;8.77;;
35372;SDS011;21476;51.652;7.852;2022-10-17T03:37:26;13.55;;;8.80;;
35372;SDS011;21476;51.652;7.852;2022-10-17T03:39:52;13.27;;;8.98;;
35372;SDS011;21476;51.652;7.852;2022-10-17T03:42:18;11.02;;;7.68;;
35372;SDS011;21476;51.652;7.852;2022-10-17T03:44:43;9.65;;;7.10;;
35372;SDS011;21476;51.652;7.852;2022-10-17T03:47:09;9.88;;;6.72;;
35372;SDS011;21476;51.652;7.852;2022-10-17T03:49:35;8.65;;;5.75;;
35372;SDS011;21476;51.652;7.852;2022-10-17T03:52:00;9.05;;;6.20;;
35372;SDS011;21476;51.652;7.852;2022-10-17T03:54:26;11.25;;;7.05;;
35372;SDS011;21476;51.652;7.852;2022-10-17T03:56:52;12.32;;;6.80;;
35372;SDS011;21476;51.652;7.852;2022-10-17T03:59:17;11.20;;;6.80;;
35372;SDS011;21476;51.652;7.852;2022-10-17T04:01:43;9.98;;;7.45;;
35372;SDS011;21476;51.652;7.852;2022-10-17T04:04:09;11.13;;;6.95;;
35372;SDS011;21476;51.652;7.852;2022-10-17T04:06:35;12.15;;;7.78;;
35372;SDS011;21476;51.652;7.852;2022-10-17T04:09:02;11.55;;;6.70;;
35372;SDS011;21476;51.652;7.852;2022-10-17T04:11:28;10.80;;;8.15;;
35372;SDS011;21476;51.652;7.852;2022-10-17T04:13:55;11.90;;;7.32;;
35372;SDS011;21476;51.652;7.852;2022-10-17T04:16:21;11.15;;;7.53;;
35372;SDS011;21476;51.652;7.852;2022-10-17T04:18:51;9.95;;;6.85;;
35372;SDS011;21476;51.652;7.852;2022-10-17T04:21:19;8.73;;;7.05;;
35372;SDS011;21476;51.652;7.852;2022-10-17T04:23:45;11.20;;;7.40;;
35372;SDS011;21476;51.652;7.852;2022-10-17T04:26:11;9.48;;;7.38;;
35372;SDS011;21476;51.652;7.852;2022-10-17T04:28:37;9.77;;;7.15;;
35372;SDS011;21476;51.652;7.852;2022-10-17T04:31:03;12.43;;;7.75;;
35372;SDS011;21476;51.652;7.852;2022-10-17T04:33:32;10.93;;;8.02;;
35372;SDS011;21476;51.652;7.852;2022-10-17T04:35:59;13.50;;;8.23;;
35372;SDS011;21476;51.652;7.852;2022-10-17T04:38:29;11.48;;;8.27;;
35372;SDS011;21476;51.652;7.852;2022-10-17T04:40:58;10.52;;;7.90;;
35372;SDS011;21476;51.652;7.852;2022-10-17T04:43:27;12.15;;;7.53;;
35372;SDS011;21476;51.652;7.852;2022-10-17T04:46:00;14.63;;;7.78;;
35372;SDS011;21476;51.652;7.852;2022-10-17T04:48:28;11.60;;;6.72;;
35372;SDS011;21476;51.652;7.852;2022-10-17T04:50:54;11.77;;;7.20;;
35372;SDS011;21476;51.652;7.852;2022-10-17T04:53:22;11.55;;;7.40;;
35372;SDS011;21476;51.652;7.852;2022-10-17T04:55:48;15.00;;;7.07;;
35372;SDS011;21476;51.652;7.852;2022-10-17T04:58:14;12.88;;;7.47;;
35372;SDS011;21476;51.652;7.852;2022-10-17T05:00:41;14.60;;;6.28;;
35372;SDS011;21476;51.652;7.852;2022-10-17T05:03:07;9.77;;;6.28;;
35372;SDS011;21476;51.652;7.852;2022-10-17T05:05:33;10.85;;;5.93;;
35372;SDS011;21476;51.652;7.852;2022-10-17T05:08:06;10.73;;;5.90;;
35372;SDS011;21476;51.652;7.852;2022-10-17T05:10:36;11.27;;;6.72;;
35372;SDS011;21476;51.652;7.852;2022-10-17T05:13:06;13.32;;;7.30;;
35372;SDS011;21476;51.652;7.852;2022-10-17T05:15:32;11.52;;;5.90;;
35372;SDS011;21476;51.652;7.852;2022-10-17T05:17:59;10.02;;;6.35;;
35372;SDS011;21476;51.652;7.852;2022-10-17T05:20:25;8.10;;;5.55;;
35372;SDS011;21476;51.652;7.852;2022-10-17T05:22:51;11.35;;;6.05;;
35372;SDS011;21476;51.652;7.852;2022-10-17T05:25:17;8.18;;;5.72;;
35372;SDS011;21476;51.652;7.852;2022-10-17T05:27:43;12.20;;;6.38;;
35372;SDS011;21476;51.652;7.852;2022-10-17T05:30:09;10.35;;;6.03;;
35372;SDS011;21476;51.652;7.852;2022-10-17T05:32:34;11.63;;;6.35;;
35372;SDS011;21476;51.652;7.852;2022-10-17T05:35:00;8.45;;;5.45;;
35372;SDS011;21476;51.652;7.852;2022-10-17T05:37:28;8.32;;;5.65;;
35372;SDS011;21476;51.652;7.852;2022-10-17T05:39:55;9.80;;;5.35;;
35372;SDS011;21476;51.652;7.852;2022-10-17T05:42:20;24.10;;;16.10;;
35372;SDS011;21476;51.652;7.852;2022-10-17T05:44:46;29.60;;;19.00;;
35372;SDS011;21476;51.652;7.852;2022-10-17T05:47:12;16.88;;;7.97;;
35372;SDS011;21476;51.652;7.852;2022-10-17T05:49:38;15.95;;;6.57;;
35372;SDS011;21476;51.652;7.852;2022-10-17T05:52:03;8.40;;;5.85;;
35372;SDS011;21476;51.652;7.852;2022-10-17T05:54:29;10.43;;;5.82;;
35372;SDS011;21476;51.652;7.852;2022-10-17T05:56:55;10.93;;;5.88;;
35372;SDS011;21476;51.652;7.852;2022-10-17T05:59:20;10.95;;;5.30;;
35372;SDS011;21476;51.652;7.852;2022-10-17T06:01:48;8.60;;;5.15;;
35372;SDS011;21476;51.652;7.852;2022-10-17T06:04:14;7.38;;;4.70;;
35372;SDS011;21476;51.652;7.852;2022-10-17T06:06:40;7.25;;;5.20;;
35372;SDS011;21476;51.652;7.852;2022-10-17T06:09:06;8.40;;;5.57;;
35372;SDS011;21476;51.652;7.852;2022-10-17T06:11:32;12.68;;;5.00;;
35372;SDS011;21476;51.652;7.852;2022-10-17T06:13:58;8.90;;;4.68;;
35372;SDS011;21476;51.652;7.852;2022-10-17T06:16:24;8.18;;;5.45;;
35372;SDS011;21476;51.652;7.852;2022-10-17T06:18:50;9.27;;;4.78;;
35372;SDS011;21476;51.652;7.852;2022-10-17T06:21:18;9.88;;;5.20;;
35372;SDS011;21476;51.652;7.852;2022-10-17T06:23:48;10.20;;;4.82;;
35372;SDS011;21476;51.652;7.852;2022-10-17T06:26:14;8.10;;;4.93;;
35372;SDS011;21476;51.652;7.852;2022-10-17T06:28:40;6.80;;;4.35;;
35372;SDS011;21476;51.652;7.852;2022-10-17T06:31:10;6.03;;;4.55;;
35372;SDS011;21476;51.652;7.852;2022-10-17T06:33:37;6.45;;;5.22;;
35372;SDS011;21476;51.652;7.852;2022-10-17T06:36:03;8.38;;;4.78;;
35372;SDS011;21476;51.652;7.852;2022-10-17T06:38:30;7.00;;;4.32;;
35372;SDS011;21476;51.652;7.852;2022-10-17T06:41:29;9.57;;;4.97;;
35372;SDS011;21476;51.652;7.852;2022-10-17T06:43:49;7.43;;;4.22;;
35372;SDS011;21476;51.652;7.852;2022-10-17T06:46:16;8.15;;;3.83;;
35372;SDS011;21476;51.652;7.852;2022-10-17T06:48:42;6.75;;;4.03;;
35372;SDS011;21476;51.652;7.852;2022-10-17T06:51:08;6.63;;;4.15;;
35372;SDS011;21476;51.652;7.852;2022-10-17T06:53:36;9.38;;;3.85;;
35372;SDS011;21476;51.652;7.852;2022-10-17T06:56:03;6.75;;;4.10;;
35372;SDS011;21476;51.652;7.852;2022-10-17T06:58:31;5.45;;;3.72;;
35372;SDS011;21476;51.652;7.852;2022-10-17T07:00:59;7.38;;;4.10;;
35372;SDS011;21476;51.652;7.852;2022-10-17T07:03:26;10.65;;;4.55;;
35372;SDS011;21476;51.652;7.852;2022-10-17T07:05:52;9.27;;;4.40;;
35372;SDS011;21476;51.652;7.852;2022-10-17T07:08:19;6.75;;;4.43;;
35372;SDS011;21476;51.652;7.852;2022-10-17T07:10:45;8.13;;;4.55;;
35372;SDS011;21476;51.652;7.852;2022-10-17T07:13:10;6.45;;;4.05;;
35372;SDS011;21476;51.652;7.852;2022-10-17T07:15:36;5.68;;;3.80;;
35372;SDS011;21476;51.652;7.852;2022-10-17T07:18:03;6.90;;;4.05;;
35372;SDS011;21476;51.652;7.852;2022-10-17T07:20:29;9.52;;;3.92;;
35372;SDS011;21476;51.652;7.852;2022-10-17T07:22:54;8.93;;;4.25;;
35372;SDS011;21476;51.652;7.852;2022-10-17T07:25:20;7.45;;;4.10;;
35372;SDS011;21476;51.652;7.852;2022-10-17T07:27:47;9.55;;;4.47;;
35372;SDS011;21476;51.652;7.852;2022-10-17T07:30:16;10.38;;;3.88;;
35372;SDS011;21476;51.652;7.852;2022-10-17T07:32:43;7.43;;;4.10;;
35372;SDS011;21476;51.652;7.852;2022-10-17T07:35:09;10.30;;;3.70;;
35372;SDS011;21476;51.652;7.852;2022-10-17T07:37:35;5.90;;;3.38;;
35372;SDS011;21476;51.652;7.852;2022-10-17T07:40:02;7.75;;;3.50;;
35372;SDS011;21476;51.652;7.852;2022-10-17T07:42:27;7.47;;;3.60;;
35372;SDS011;21476;51.652;7.852;2022-10-17T07:44:53;6.18;;;3.60;;
35372;SDS011;21476;51.652;7.852;2022-10-17T07:47:19;4.35;;;3.05;;
35372;SDS011;21476;51.652;7.852;2022-10-17T07:49:45;8.20;;;3.20;;
35372;SDS011;21476;51.652;7.852;2022-10-17T07:52:14;5.50;;;3.30;;
35372;SDS011;21476;51.652;7.852;2022-10-17T07:54:41;7.55;;;2.60;;
35372;SDS011;21476;51.652;7.852;2022-10-17T07:57:07;8.85;;;3.70;;
35372;SDS011;21476;51.652;7.852;2022-10-17T07:59:33;5.20;;;2.90;;
35372;SDS011;21476;51.652;7.852;2022-10-17T08:01:59;7.00;;;3.33;;
35372;SDS011;21476;51.652;7.852;2022-10-17T08:04:25;17.15;;;3.28;;
35372;SDS011;21476;51.652;7.852;2022-10-17T08:06:51;6.18;;;2.30;;
35372;SDS011;21476;51.652;7.852;2022-10-17T08:09:17;8.30;;;3.28;;
35372;SDS011;21476;51.652;7.852;2022-10-17T08:11:43;4.97;;;2.42;;
35372;SDS011;21476;51.652;7.852;2022-10-17T08:14:10;4.88;;;2.47;;
35372;SDS011;21476;51.652;7.852;2022-10-17T08:16:40;10.02;;;3.95;;
35372;SDS011;21476;51.652;7.852;2022-10-17T08:19:06;5.30;;;2.95;;
35372;SDS011;21476;51.652;7.852;2022-10-17T08:21:35;5.45;;;2.38;;
35372;SDS011;21476;51.652;7.852;2022-10-17T08:24:02;6.97;;;2.28;;
35372;SDS011;21476;51.652;7.852;2022-10-17T08:26:28;6.25;;;2.30;;
35372;SDS011;21476;51.652;7.852;2022-10-17T08:28:54;4.75;;;2.50;;
35372;SDS011;21476;51.652;7.852;2022-10-17T08:31:20;7.53;;;2.70;;
35372;SDS011;21476;51.652;7.852;2022-10-17T08:33:47;5.53;;;2.80;;
35372;SDS011;21476;51.652;7.852;2022-10-17T08:36:15;9.20;;;3.28;;
35372;SDS011;21476;51.652;7.852;2022-10-17T08:38:42;7.60;;;2.40;;
35372;SDS011;21476;51.652;7.852;2022-10-17T08:41:19;14.73;;;2.70;;
35372;SDS011;21476;51.652;7.852;2022-10-17T08:46:30;8.02;;;2.40;;
35372;SDS011;21476;51.652;7.852;2022-10-17T08:49:00;17.40;;;3.33;;
35372;SDS011;21476;51.652;7.852;2022-10-17T08:51:29;6.95;;;3.05;;
35372;SDS011;21476;51.652;7.852;2022-10-17T08:56:45;8.43;;;2.40;;
35372;SDS011;21476;51.652;7.852;2022-10-17T08:59:16;6.00;;;2.40;;
35372;SDS011;21476;51.652;7.852;2022-10-17T09:13:30;4.72;;;1.90;;
35372;SDS011;21476;51.652;7.852;2022-10-17T09:18:12;6.40;;;2.25;;
35372;SDS011;21476;51.652;7.852;2022-10-17T09:20:48;6.53;;;2.55;;
35372;SDS011;21476;51.652;7.852;2022-10-17T09:23:21;8.93;;;2.28;;
35372;SDS011;21476;51.652;7.852;2022-10-17T09:26:02;5.53;;;2.75;;
35372;SDS011;21476;51.652;7.852;2022-10-17T09:31:00;13.05;;;2.97;;
35372;SDS011;21476;51.652;7.852;2022-10-17T09:33:33;7.18;;;2.63;;
35372;SDS011;21476;51.652;7.852;2022-10-17T09:36:12;4.47;;;2.15;;
35372;SDS011;21476;51.652;7.852;2022-10-17T09:38:42;8.55;;;2.72;;
35372;SDS011;21476;51.652;7.852;2022-10-17T09:41:22;7.20;;;2.70;;
35372;SDS011;21476;51.652;7.852;2022-10-17T09:43:57;5.55;;;2.45;;
35372;SDS011;21476;51.652;7.852;2022-10-17T09:46:35;5.60;;;2.42;;
35372;SDS011;21476;51.652;7.852;2022-10-17T09:49:05;8.00;;;2.75;;
35372;SDS011;21476;51.652;7.852;2022-10-17T09:51:43;10.13;;;2.92;;
35372;SDS011;21476;51.652;7.852;2022-10-17T09:54:52;6.10;;;2.03;;
35372;SDS011;21476;51.652;7.852;2022-10-17T09:57:06;13.10;;;3.08;;
35372;SDS011;21476;51.652;7.852;2022-10-17T09:59:38;8.55;;;3.13;;
35372;SDS011;21476;51.652;7.852;2022-10-17T10:02:25;6.22;;;2.53;;
35372;SDS011;21476;51.652;7.852;2022-10-17T10:05:03;4.20;;;2.10;;
35372;SDS011;21476;51.652;7.852;2022-10-17T10:07:34;6.60;;;2.72;;
35372;SDS011;21476;51.652;7.852;2022-10-17T10:10:02;6.93;;;2.63;;
35372;SDS011;21476;51.652;7.852;2022-10-17T10:12:32;6.13;;;2.45;;
35372;SDS011;21476;51.652;7.852;2022-10-17T10:14:59;7.00;;;2.63;;
35372;SDS011;21476;51.652;7.852;2022-10-17T10:17:35;11.00;;;2.50;;
35372;SDS011;21476;51.652;7.852;2022-10-17T10:20:23;11.13;;;2.70;;
35372;SDS011;21476;51.652;7.852;2022-10-17T10:23:10;5.30;;;2.25;;
35372;SDS011;21476;51.652;7.852;2022-10-17T10:25:47;8.35;;;2.63;;
35372;SDS011;21476;51.652;7.852;2022-10-17T10:28:18;9.68;;;2.40;;
35372;SDS011;21476;51.652;7.852;2022-10-17T10:30:48;9.65;;;2.72;;
35372;SDS011;21476;51.652;7.852;2022-10-17T10:33:18;7.53;;;3.00;;
35372;SDS011;21476;51.652;7.852;2022-10-17T10:35:56;8.82;;;2.35;;
35372;SDS011;21476;51.652;7.852;2022-10-17T10:38:27;8.27;;;2.78;;
35372;SDS011;21476;51.652;7.852;2022-10-17T10:40:54;4.65;;;2.30;;
35372;SDS011;21476;51.652;7.852;2022-10-17T10:45:57;10.77;;;2.90;;
35372;SDS011;21476;51.652;7.852;2022-10-17T10:48:35;5.40;;;2.58;;
35372;SDS011;21476;51.652;7.852;2022-10-17T10:51:03;9.68;;;2.78;;
35372;SDS011;21476;51.652;7.852;2022-10-17T10:56:13;7.03;;;2.58;;
35372;SDS011;21476;51.652;7.852;2022-10-17T10:58:49;7.82;;;3.38;;
35372;SDS011;21476;51.652;7.852;2022-10-17T11:01:26;9.50;;;2.40;;
35372;SDS011;21476;51.652;7.852;2022-10-17T11:06:44;12.15;;;2.88;;
35372;SDS011;21476;51.652;7.852;2022-10-17T11:11:53;9.90;;;3.08;;
35372;SDS011;21476;51.652;7.852;2022-10-17T11:14:36;8.98;;;3.20;;
35372;SDS011;21476;51.652;7.852;2022-10-17T11:17:33;6.47;;;2.72;;
35372;SDS011;21476;51.652;7.852;2022-10-17T11:25:44;9.30;;;3.53;;
35372;SDS011;21476;51.652;7.852;2022-10-17T11:28:14;6.70;;;3.17;;
35372;SDS011;21476;51.652;7.852;2022-10-17T11:31:02;6.38;;;3.15;;
35372;SDS011;21476;51.652;7.852;2022-10-17T11:33:39;8.23;;;2.80;;
35372;SDS011;21476;51.652;7.852;2022-10-17T11:36:10;7.50;;;2.78;;
35372;SDS011;21476;51.652;7.852;2022-10-17T11:41:14;7.88;;;2.72;;
35372;SDS011;21476;51.652;7.852;2022-10-17T11:46:23;13.57;;;3.72;;
35372;SDS011;21476;51.652;7.852;2022-10-17T11:51:25;10.75;;;3.40;;
35372;SDS011;21476;51.652;7.852;2022-10-17T11:56:49;9.30;;;3.30;;
35372;SDS011;21476;51.652;7.852;2022-10-17T11:59:32;5.90;;;3.08;;
35372;SDS011;21476;51.652;7.852;2022-10-17T12:02:13;8.35;;;3.10;;
35372;SDS011;21476;51.652;7.852;2022-10-17T12:04:55;8.02;;;3.25;;
35372;SDS011;21476;51.652;7.852;2022-10-17T12:07:35;9.15;;;3.42;;
35372;SDS011;21476;51.652;7.852;2022-10-17T12:12:48;6.45;;;2.75;;
35372;SDS011;21476;51.652;7.852;2022-10-17T12:20:34;8.40;;;3.15;;
35372;SDS011;21476;51.652;7.852;2022-10-17T12:23:16;8.60;;;3.92;;
35372;SDS011;21476;51.652;7.852;2022-10-17T12:25:49;9.95;;;2.83;;
35372;SDS011;21476;51.652;7.852;2022-10-17T12:31:20;9.93;;;3.58;;
35372;SDS011;21476;51.652;7.852;2022-10-17T12:38:45;7.35;;;2.92;;
35372;SDS011;21476;51.652;7.852;2022-10-17T12:49:24;7.18;;;3.03;;
35372;SDS011;21476;51.652;7.852;2022-10-17T12:54:30;12.10;;;3.55;;
35372;SDS011;21476;51.652;7.852;2022-10-17T12:57:12;6.47;;;2.85;;
35372;SDS011;21476;51.652;7.852;2022-10-17T12:59:44;10.30;;;3.03;;
35372;SDS011;21476;51.652;7.852;2022-10-17T13:02:18;9.07;;;2.75;;
35372;SDS011;21476;51.652;7.852;2022-10-17T13:04:46;6.40;;;2.90;;
35372;SDS011;21476;51.652;7.852;2022-10-17T13:07:17;7.97;;;2.95;;
35372;SDS011;21476;51.652;7.852;2022-10-17T13:09:45;9.38;;;3.50;;
35372;SDS011;21476;51.652;7.852;2022-10-17T13:12:17;8.88;;;2.38;;
35372;SDS011;21476;51.652;7.852;2022-10-17T13:14:47;9.63;;;2.97;;
35372;SDS011;21476;51.652;7.852;2022-10-17T13:17:25;7.28;;;3.17;;
35372;SDS011;21476;51.652;7.852;2022-10-17T13:19:53;9.27;;;3.05;;
35372;SDS011;21476;51.652;7.852;2022-10-17T13:25:03;6.22;;;2.80;;
35372;SDS011;21476;51.652;7.852;2022-10-17T13:27:32;10.15;;;3.38;;
35372;SDS011;21476;51.652;7.852;2022-10-17T13:30:00;6.80;;;2.83;;
35372;SDS011;21476;51.652;7.852;2022-10-17T13:32:35;8.30;;;3.13;;
35372;SDS011;21476;51.652;7.852;2022-10-17T13:35:06;6.97;;;3.70;;
35372;SDS011;21476;51.652;7.852;2022-10-17T13:37:38;11.75;;;2.83;;
35372;SDS011;21476;51.652;7.852;2022-10-17T13:40:05;8.10;;;3.60;;
35372;SDS011;21476;51.652;7.852;2022-10-17T13:42:38;8.80;;;3.13;;
35372;SDS011;21476;51.652;7.852;2022-10-17T13:45:50;6.03;;;3.30;;
35372;SDS011;21476;51.652;7.852;2022-10-17T13:47:53;7.07;;;3.58;;
35372;SDS011;21476;51.652;7.852;2022-10-17T13:50:27;8.02;;;3.75;;
35372;SDS011;21476;51.652;7.852;2022-10-17T13:55:52;8.00;;;3.20;;
35372;SDS011;21476;51.652;7.852;2022-10-17T13:58:19;7.60;;;3.80;;
35372;SDS011;21476;51.652;7.852;2022-10-17T14:00:45;16.38;;;4.72;;
35372;SDS011;21476;51.652;7.852;2022-10-17T14:03:13;9.05;;;3.92;;
35372;SDS011;21476;51.652;7.852;2022-10-17T14:05:58;8.68;;;4.28;;
35372;SDS011;21476;51.652;7.852;2022-10-17T14:08:46;8.13;;;3.63;;
35372;SDS011;21476;51.652;7.852;2022-10-17T14:11:13;7.78;;;4.28;;
35372;SDS011;21476;51.652;7.852;2022-10-17T14:13:49;6.82;;;3.38;;
35372;SDS011;21476;51.652;7.852;2022-10-17T14:16:16;12.65;;;4.47;;
35372;SDS011;21476;51.652;7.852;2022-10-17T14:18:44;9.82;;;4.47;;
35372;SDS011;21476;51.652;7.852;2022-10-17T14:21:18;10.85;;;3.58;;
35372;SDS011;21476;51.652;7.852;2022-10-17T14:23:45;11.57;;;3.78;;
35372;SDS011;21476;51.652;7.852;2022-10-17T14:26:16;12.93;;;4.85;;
35372;SDS011;21476;51.652;7.852;2022-10-17T14:28:43;7.82;;;3.42;;
35372;SDS011;21476;51.652;7.852;2022-10-17T14:31:21;7.25;;;3.55;;
35372;SDS011;21476;51.652;7.852;2022-10-17T14:36:20;9.30;;;3.47;;
35372;SDS011;21476;51.652;7.852;2022-10-17T14:38:54;11.35;;;3.53;;
35372;SDS011;21476;51.652;7.852;2022-10-17T14:41:22;12.32;;;3.25;;
35372;SDS011;21476;51.652;7.852;2022-10-17T14:43:54;9.60;;;3.15;;
35372;SDS011;21476;51.652;7.852;2022-10-17T14:46:25;10.90;;;4.32;;
35372;SDS011;21476;51.652;7.852;2022-10-17T14:49:04;6.28;;;3.50;;
35372;SDS011;21476;51.652;7.852;2022-10-17T14:51:32;8.88;;;3.33;;
35372;SDS011;21476;51.652;7.852;2022-10-17T14:54:00;10.93;;;3.50;;
35372;SDS011;21476;51.652;7.852;2022-10-17T14:56:35;7.35;;;3.13;;
35372;SDS011;21476;51.652;7.852;2022-10-17T14:59:05;9.10;;;3.47;;
35372;SDS011;21476;51.652;7.852;2022-10-17T15:01:32;5.72;;;3.10;;
35372;SDS011;21476;51.652;7.852;2022-10-17T15:03:58;8.05;;;3.22;;
35372;SDS011;21476;51.652;7.852;2022-10-17T15:06:28;4.85;;;3.20;;
35372;SDS011;21476;51.652;7.852;2022-10-17T15:08:56;9.82;;;3.28;;
35372;SDS011;21476;51.652;7.852;2022-10-17T15:11:22;14.90;;;3.88;;
35372;SDS011;21476;51.652;7.852;2022-10-17T15:13:48;7.57;;;3.17;;
35372;SDS011;21476;51.652;7.852;2022-10-17T15:16:16;6.28;;;3.47;;
35372;SDS011;21476;51.652;7.852;2022-10-17T15:18:44;8.43;;;3.50;;
35372;SDS011;21476;51.652;7.852;2022-10-17T15:21:13;7.85;;;2.97;;
35372;SDS011;21476;51.652;7.852;2022-10-17T15:23:41;8.00;;;3.45;;
35372;SDS011;21476;51.652;7.852;2022-10-17T15:26:29;9.32;;;3.78;;
35372;SDS011;21476;51.652;7.852;2022-10-17T15:28:57;10.68;;;3.72;;
35372;SDS011;21476;51.652;7.852;2022-10-17T15:31:24;12.68;;;3.55;;
35372;SDS011;21476;51.652;7.852;2022-10-17T15:33:50;9.60;;;3.97;;
35372;SDS011;21476;51.652;7.852;2022-10-17T15:38:58;8.20;;;3.33;;
35372;SDS011;21476;51.652;7.852;2022-10-17T15:41:26;10.60;;;3.80;;
35372;SDS011;21476;51.652;7.852;2022-10-17T15:43:53;12.05;;;3.70;;
35372;SDS011;21476;51.652;7.852;2022-10-17T15:46:29;8.18;;;3.65;;
35372;SDS011;21476;51.652;7.852;2022-10-17T15:49:03;12.63;;;4.15;;
35372;SDS011;21476;51.652;7.852;2022-10-17T15:51:31;9.48;;;3.58;;
35372;SDS011;21476;51.652;7.852;2022-10-17T15:53:57;6.18;;;3.33;;
35372;SDS011;21476;51.652;7.852;2022-10-17T15:56:27;10.43;;;4.10;;
35372;SDS011;21476;51.652;7.852;2022-10-17T15:58:55;10.20;;;4.60;;
35372;SDS011;21476;51.652;7.852;2022-10-17T16:01:23;9.80;;;4.53;;
35372;SDS011;21476;51.652;7.852;2022-10-17T16:03:50;9.63;;;4.70;;
35372;SDS011;21476;51.652;7.852;2022-10-17T16:06:17;11.57;;;4.68;;
35372;SDS011;21476;51.652;7.852;2022-10-17T16:08:44;12.00;;;4.22;;
35372;SDS011;21476;51.652;7.852;2022-10-17T16:11:29;9.07;;;4.18;;
35372;SDS011;21476;51.652;7.852;2022-10-17T16:13:59;11.27;;;5.00;;
35372;SDS011;21476;51.652;7.852;2022-10-17T16:16:27;9.00;;;4.82;;
35372;SDS011;21476;51.652;7.852;2022-10-17T16:18:53;10.07;;;4.88;;
35372;SDS011;21476;51.652;7.852;2022-10-17T16:21:19;10.55;;;4.38;;
35372;SDS011;21476;51.652;7.852;2022-10-17T16:23:49;14.45;;;5.57;;
35372;SDS011;21476;51.652;7.852;2022-10-17T16:26:14;13.57;;;5.25;;
35372;SDS011;21476;51.652;7.852;2022-10-17T16:28:41;8.02;;;4.32;;
35372;SDS011;21476;51.652;7.852;2022-10-17T16:31:18;13.07;;;5.82;;
35372;SDS011;21476;51.652;7.852;2022-10-17T16:33:44;14.05;;;6.65;;
35372;SDS011;21476;51.652;7.852;2022-10-17T16:36:09;10.73;;;5.63;;
35372;SDS011;21476;51.652;7.852;2022-10-17T16:38:35;10.88;;;5.63;;
35372;SDS011;21476;51.652;7.852;2022-10-17T16:41:00;13.63;;;6.47;;
35372;SDS011;21476;51.652;7.852;2022-10-17T16:43:26;12.65;;;7.10;;
35372;SDS011;21476;51.652;7.852;2022-10-17T16:45:54;13.60;;;6.15;;
35372;SDS011;21476;51.652;7.852;2022-10-17T16:48:19;10.48;;;6.28;;
35372;SDS011;21476;51.652;7.852;2022-10-17T16:50:45;13.80;;;6.25;;
35372;SDS011;21476;51.652;7.852;2022-10-17T16:53:10;12.27;;;6.38;;
35372;SDS011;21476;51.652;7.852;2022-10-17T16:55:36;17.08;;;6.22;;
35372;SDS011;21476;51.652;7.852;2022-10-17T16:58:01;13.63;;;7.28;;
35372;SDS011;21476;51.652;7.852;2022-10-17T17:00:27;15.18;;;7.28;;
35372;SDS011;21476;51.652;7.852;2022-10-17T17:02:53;14.85;;;6.63;;